createdAt,value
2023-03-27T00:01:30.864Z,3.92
2023-03-27T00:03:59.024Z,3.92
2023-03-27T00:06:27.670Z,3.92
2023-03-27T00:08:56.266Z,3.91
2023-03-27T00:11:25.273Z,3.87
2023-03-27T00:13:56.442Z,3.85
2023-03-27T00:16:27.181Z,3.86
2023-03-27T00:18:56.053Z,3.85
2023-03-27T00:21:24.536Z,3.82
2023-03-27T00:23:52.592Z,3.83
2023-03-27T00:26:22.540Z,3.85
2023-03-27T00:28:50.384Z,3.84
2023-03-27T00:31:18.464Z,3.84
2023-03-27T00:33:46.857Z,3.75
2023-03-27T00:36:15.508Z,3.72
2023-03-27T00:38:44.082Z,3.74
2023-03-27T00:41:12.896Z,3.75
2023-03-27T00:43:44.964Z,3.76
2023-03-27T00:46:16.096Z,3.69
2023-03-27T00:48:47.385Z,3.65
2023-03-27T00:51:16.714Z,3.52
2023-03-27T00:53:46.236Z,3.45
2023-03-27T00:56:16.915Z,3.45
2023-03-27T00:59:11.243Z,3.29
2023-03-27T01:01:40.516Z,3.21
2023-03-27T01:04:09.415Z,3.16
2023-03-27T01:06:39.373Z,3.16
2023-03-27T01:09:09.536Z,3.13
2023-03-27T01:12:07.803Z,3.12
2023-03-27T01:15:02.060Z,3.06
2023-03-27T01:18:08.125Z,2.98
2023-03-27T01:21:14.234Z,2.89
2023-03-27T01:24:09.634Z,2.73
2023-03-27T01:26:58.336Z,2.60
2023-03-27T01:29:39.508Z,2.54
2023-03-27T01:32:15.017Z,2.44
2023-03-27T01:35:20.357Z,2.38
2023-03-27T01:38:13.040Z,2.21
2023-03-27T01:41:06.254Z,2.16
2023-03-27T01:43:45.969Z,2.04
2023-03-27T01:46:21.301Z,1.94
2023-03-27T01:49:16.521Z,1.89
2023-03-27T01:51:49.283Z,1.85
2023-03-27T01:54:22.000Z,1.74
2023-03-27T01:56:55.219Z,1.69
2023-03-27T01:59:27.311Z,1.58
2023-03-27T02:02:04.691Z,1.63
2023-03-27T02:04:44.726Z,1.61
2023-03-27T02:07:19.006Z,1.57
2023-03-27T02:09:52.538Z,1.58
2023-03-27T02:12:34.171Z,1.50
2023-03-27T02:15:23.911Z,1.38
2023-03-27T02:18:05.216Z,1.35
2023-03-27T02:20:34.799Z,1.32
2023-03-27T02:23:04.121Z,1.26
2023-03-27T02:25:33.178Z,1.23
2023-03-27T02:28:26.569Z,1.16
2023-03-27T02:31:32.334Z,1.13
2023-03-27T02:34:20.576Z,1.08
2023-03-27T02:37:07.464Z,1.07
2023-03-27T02:40:15.753Z,1.01
2023-03-27T02:42:46.493Z,0.97
2023-03-27T02:45:51.881Z,0.93
2023-03-27T02:48:40.849Z,0.85
2023-03-27T02:51:36.772Z,0.84
2023-03-27T02:54:13.264Z,0.80
2023-03-27T02:56:46.977Z,0.74
2023-03-27T02:59:45.894Z,0.72
2023-03-27T03:02:18.290Z,0.71
2023-03-27T03:04:59.266Z,0.66
2023-03-27T03:07:30.383Z,0.70
2023-03-27T03:09:58.704Z,0.64
2023-03-27T03:12:27.010Z,0.61
2023-03-27T03:14:55.695Z,0.55
2023-03-27T03:17:23.944Z,0.50
2023-03-27T03:19:52.279Z,0.43
2023-03-27T03:22:20.880Z,0.34
2023-03-27T03:24:49.198Z,0.23
2023-03-27T03:27:22.894Z,0.12
2023-03-27T03:29:57.741Z,0.18
2023-03-27T03:32:30.526Z,0.23
2023-03-27T03:35:01.858Z,0.29
2023-03-27T03:37:38.896Z,0.31
2023-03-27T03:40:12.189Z,0.36
2023-03-27T03:42:46.428Z,0.41
2023-03-27T03:45:16.435Z,0.45
2023-03-27T03:47:45.909Z,0.50
2023-03-27T03:50:14.674Z,0.52
2023-03-27T03:52:43.478Z,0.61
2023-03-27T03:55:12.359Z,0.65
2023-03-27T03:57:41.096Z,0.69
2023-03-27T04:00:14.385Z,0.72
2023-03-27T04:02:51.673Z,0.81
2023-03-27T04:05:21.853Z,0.82
2023-03-27T04:07:53.069Z,0.81
2023-03-27T04:10:41.589Z,0.88
2023-03-27T04:13:22.381Z,0.92
2023-03-27T04:16:01.972Z,0.92
2023-03-27T04:18:41.638Z,0.91
2023-03-27T04:21:18.413Z,1.00
2023-03-27T04:23:51.792Z,1.06
2023-03-27T04:26:29.922Z,1.18
2023-03-27T04:29:16.211Z,1.24
2023-03-27T04:32:30.834Z,1.34
2023-03-27T04:35:28.217Z,1.38
2023-03-27T04:38:08.994Z,1.49
2023-03-27T04:40:49.303Z,1.58
2023-03-27T04:43:19.875Z,1.63
2023-03-27T04:45:48.689Z,1.73
2023-03-27T04:48:17.642Z,1.81
2023-03-27T04:50:50.687Z,1.91
2023-03-27T04:53:32.410Z,2.02
2023-03-27T04:56:01.889Z,2.05
2023-03-27T04:58:37.184Z,2.24
2023-03-27T05:01:10.159Z,2.35
2023-03-27T05:04:08.052Z,2.46
2023-03-27T05:06:51.760Z,2.57
2023-03-27T05:09:20.582Z,2.64
2023-03-27T05:11:50.776Z,2.70
2023-03-27T05:14:21.871Z,2.74
2023-03-27T05:16:51.124Z,2.75
2023-03-27T05:19:20.695Z,2.79
2023-03-27T05:21:57.460Z,2.83
2023-03-27T05:24:25.667Z,2.82
2023-03-27T05:26:54.092Z,2.88
2023-03-27T05:29:22.617Z,2.97
2023-03-27T05:32:01.139Z,3.02
2023-03-27T05:34:55.267Z,3.07
2023-03-27T05:37:26.362Z,3.10
2023-03-27T05:40:18.184Z,3.22
2023-03-27T05:42:47.097Z,3.22
2023-03-27T05:45:16.453Z,3.27
2023-03-27T05:47:53.154Z,3.23
2023-03-27T05:50:25.686Z,3.19
2023-03-27T05:52:59.544Z,3.19
2023-03-27T05:55:39.792Z,3.19
2023-03-27T05:58:10.410Z,3.27
2023-03-27T06:00:42.058Z,3.24
2023-03-27T06:03:13.856Z,3.29
2023-03-27T06:06:11.964Z,3.33
2023-03-27T06:08:42.729Z,3.32
2023-03-27T06:11:13.224Z,3.48
2023-03-27T06:13:45.805Z,3.54
2023-03-27T06:16:21.396Z,3.69
2023-03-27T06:19:07.926Z,3.83
2023-03-27T06:21:44.742Z,3.96
2023-03-27T06:24:12.808Z,4.14
2023-03-27T06:26:41.550Z,4.06
2023-03-27T06:29:11.083Z,3.97
2023-03-27T06:31:46.899Z,3.93
2023-03-27T06:34:22.671Z,3.91
2023-03-27T06:37:00.064Z,3.95
2023-03-27T06:39:28.520Z,3.96
2023-03-27T06:41:57.360Z,3.94
2023-03-27T06:44:48.129Z,3.75
2023-03-27T06:47:51.678Z,3.83
2023-03-27T06:50:35.983Z,3.93
2023-03-27T06:53:12.891Z,3.96
2023-03-27T06:55:50.121Z,4.12
2023-03-27T06:58:19.300Z,4.18
2023-03-27T07:00:49.631Z,4.22
2023-03-27T07:03:21.091Z,4.28
2023-03-27T07:06:07.512Z,4.41
2023-03-27T07:08:55.698Z,4.33
2023-03-27T07:11:24.125Z,4.49
2023-03-27T07:13:57.068Z,4.60
2023-03-27T07:16:29.564Z,4.59
2023-03-27T07:19:00.885Z,4.73
2023-03-27T07:21:31.207Z,4.80
2023-03-27T07:24:01.460Z,4.57
2023-03-27T07:26:34.017Z,4.60
2023-03-27T07:29:13.594Z,4.59
2023-03-27T07:31:57.732Z,4.55
2023-03-27T07:34:54.248Z,4.46
2023-03-27T07:37:38.473Z,4.47
2023-03-27T07:40:37.277Z,4.66
2023-03-27T07:43:26.185Z,4.71
2023-03-27T07:45:55.157Z,4.86
2023-03-27T07:48:25.259Z,4.95
2023-03-27T07:53:33.975Z,4.73
2023-03-27T07:56:26.924Z,4.70
2023-03-27T07:59:28.284Z,4.61
2023-03-27T08:01:59.597Z,4.55
2023-03-27T08:04:29.648Z,4.60
2023-03-27T08:07:05.688Z,4.63
2023-03-27T08:09:35.465Z,4.75
2023-03-27T08:12:04.482Z,4.90
2023-03-27T08:14:33.467Z,4.79
2023-03-27T08:17:16.342Z,4.80
2023-03-27T08:19:46.624Z,4.83
2023-03-27T08:22:17.272Z,4.91
2023-03-27T08:25:06.625Z,4.95
2023-03-27T08:27:36.188Z,5.03
2023-03-27T08:30:05.172Z,4.99
2023-03-27T08:32:36.806Z,5.07
2023-03-27T08:35:09.251Z,5.13
2023-03-27T08:37:37.651Z,5.00
2023-03-27T08:40:27.095Z,5.00
2023-03-27T08:43:19.422Z,4.90
2023-03-27T08:45:52.235Z,4.86
2023-03-27T08:48:30.517Z,4.86
2023-03-27T08:51:19.043Z,4.80
2023-03-27T08:53:59.609Z,4.85
2023-03-27T08:56:30.773Z,4.83
2023-03-27T08:58:59.589Z,4.85
2023-03-27T09:01:54.237Z,4.90
2023-03-27T09:04:36.391Z,4.91
2023-03-27T09:07:11.917Z,4.78
2023-03-27T09:09:59.616Z,4.72
2023-03-27T09:12:56.966Z,4.69
2023-03-27T09:15:29.100Z,4.51
2023-03-27T09:18:15.771Z,4.42
2023-03-27T09:20:56.643Z,4.35
2023-03-27T09:23:24.767Z,4.33
2023-03-27T09:26:21.843Z,4.28
2023-03-27T09:29:30.190Z,4.27
2023-03-27T09:32:18.114Z,4.12
2023-03-27T09:34:46.223Z,4.08
2023-03-27T09:37:18.082Z,3.95
2023-03-27T09:39:50.360Z,3.96
2023-03-27T09:42:34.150Z,3.94
2023-03-27T09:45:08.342Z,4.07
2023-03-27T09:47:57.421Z,4.15
2023-03-27T09:50:33.221Z,4.22
2023-03-27T09:53:16.506Z,4.19
2023-03-27T09:55:53.232Z,4.22
2023-03-27T09:58:37.577Z,4.25
2023-03-27T10:01:16.299Z,4.32
2023-03-27T10:03:53.609Z,4.44
2023-03-27T10:06:39.020Z,4.49
2023-03-27T10:09:30.141Z,4.44
2023-03-27T10:12:16.918Z,4.29
2023-03-27T10:14:52.263Z,4.35
2023-03-27T10:17:28.355Z,4.40
2023-03-27T10:20:11.020Z,4.48
2023-03-27T10:22:42.615Z,4.63
2023-03-27T10:25:23.127Z,4.81
2023-03-27T10:28:20.038Z,5.05
2023-03-27T10:31:25.647Z,4.98
2023-03-27T10:34:43.669Z,4.76
2023-03-27T10:37:34.640Z,4.55
2023-03-27T10:40:26.984Z,4.44
2023-03-27T10:43:04.408Z,4.39
2023-03-27T10:45:44.501Z,4.48
2023-03-27T10:48:25.658Z,4.44
2023-03-27T10:50:55.347Z,4.53
2023-03-27T10:53:52.482Z,4.57
2023-03-27T10:56:33.907Z,4.62
2023-03-27T10:59:09.316Z,4.56
2023-03-27T11:01:51.289Z,4.52
2023-03-27T11:04:25.345Z,4.51
2023-03-27T11:07:03.801Z,4.53
2023-03-27T11:09:34.444Z,4.71
2023-03-27T11:12:12.299Z,4.68
2023-03-27T11:15:07.862Z,4.68
2023-03-27T11:17:52.657Z,4.63
2023-03-27T11:20:37.189Z,4.74
2023-03-27T11:23:09.901Z,4.56
2023-03-27T11:25:54.086Z,4.60
2023-03-27T11:28:45.230Z,4.64
2023-03-27T11:31:40.695Z,4.61
2023-03-27T11:34:29.315Z,4.56
2023-03-27T11:37:20.468Z,4.54
2023-03-27T11:39:56.057Z,4.72
2023-03-27T11:42:28.807Z,4.97
2023-03-27T11:44:57.225Z,5.05
2023-03-27T11:47:46.521Z,5.04
2023-03-27T11:50:40.785Z,4.98
2023-03-27T11:53:46.871Z,4.92
2023-03-27T11:56:33.274Z,4.90
2023-03-27T11:59:42.254Z,4.75
2023-03-27T12:02:49.552Z,4.78
2023-03-27T12:05:40.760Z,4.88
2023-03-27T12:08:17.413Z,5.03
2023-03-27T12:10:51.669Z,5.25
2023-03-27T12:14:18.587Z,5.30
2023-03-27T12:17:14.758Z,5.36
2023-03-27T12:20:28.583Z,5.32
2023-03-27T12:23:28.663Z,5.36
2023-03-27T12:26:19.406Z,5.29
2023-03-27T12:29:43.936Z,5.20
2023-03-27T12:32:46.482Z,5.22
2023-03-27T12:35:32.600Z,5.37
2023-03-27T12:38:03.573Z,5.45
2023-03-27T12:40:41.442Z,5.59
2023-03-27T12:43:29.829Z,5.70
2023-03-27T12:46:34.872Z,5.76
2023-03-27T12:49:10.746Z,5.71
2023-03-27T12:51:58.086Z,5.81
2023-03-27T12:55:06.100Z,5.72
2023-03-27T12:57:53.475Z,5.72
2023-03-27T13:00:42.463Z,5.78
2023-03-27T13:03:52.183Z,5.67
2023-03-27T13:06:44.932Z,5.51
2023-03-27T13:09:34.292Z,5.45
2023-03-27T13:12:36.280Z,5.33
2023-03-27T13:15:27.610Z,5.34
2023-03-27T13:18:26.059Z,5.38
2023-03-27T13:21:05.176Z,5.27
2023-03-27T13:23:44.755Z,5.28
2023-03-27T13:26:28.130Z,5.29
2023-03-27T13:29:02.364Z,5.34
2023-03-27T13:31:45.483Z,5.48
2023-03-27T13:34:42.305Z,5.47
2023-03-27T13:37:15.601Z,5.42
2023-03-27T13:40:00.133Z,5.42
2023-03-27T13:42:40.689Z,5.35
2023-03-27T13:45:29.936Z,5.31
2023-03-27T13:48:57.689Z,5.26
2023-03-27T13:51:35.128Z,5.13
2023-03-27T13:54:42.049Z,5.06
2023-03-27T13:57:31.594Z,4.94
2023-03-27T14:00:27.807Z,4.91
2023-03-27T14:03:28.022Z,4.79
2023-03-27T14:06:20.366Z,4.78
2023-03-27T14:09:06.648Z,4.77
2023-03-27T14:12:08.549Z,4.68
2023-03-27T14:15:19.046Z,4.43
2023-03-27T14:18:36.597Z,4.26
2023-03-27T14:21:07.458Z,4.09
2023-03-27T14:24:04.371Z,3.97
2023-03-27T14:26:46.238Z,3.88
2023-03-27T14:29:18.087Z,3.93
2023-03-27T14:31:49.430Z,3.82
2023-03-27T14:34:35.247Z,3.81
2023-03-27T14:37:36.655Z,3.72
2023-03-27T14:40:21.034Z,3.68
2023-03-27T14:42:52.874Z,3.60
2023-03-27T14:45:27.353Z,3.50
2023-03-27T14:48:22.707Z,3.47
2023-03-27T14:50:55.473Z,3.31
2023-03-27T14:53:26.839Z,3.28
2023-03-27T14:56:46.327Z,3.33
2023-03-27T14:59:35.734Z,3.09
2023-03-27T15:02:14.519Z,2.82
2023-03-27T15:04:44.113Z,2.63
2023-03-27T15:07:22.683Z,2.45
2023-03-27T15:10:22.600Z,2.38
2023-03-27T15:13:10.900Z,2.20
2023-03-27T15:15:47.366Z,2.18
2023-03-27T15:18:42.348Z,2.21
2023-03-27T15:21:20.313Z,2.15
2023-03-27T15:23:58.962Z,2.19
2023-03-27T15:26:31.657Z,2.25
2023-03-27T15:29:14.755Z,2.22
2023-03-27T15:31:43.709Z,2.21
2023-03-27T15:34:46.851Z,2.24
2023-03-27T15:37:25.660Z,2.26
2023-03-27T15:40:16.266Z,2.24
2023-03-27T15:42:52.998Z,2.32
2023-03-27T15:45:24.795Z,2.29
2023-03-27T15:48:01.548Z,2.26
2023-03-27T15:50:29.862Z,2.22
2023-03-27T15:52:59.396Z,2.19
2023-03-27T15:55:44.608Z,2.20
2023-03-27T15:58:37.067Z,2.22
2023-03-27T16:01:18.089Z,2.25
2023-03-27T16:03:48.544Z,2.29
2023-03-27T16:06:26.731Z,2.29
2023-03-27T16:08:55.416Z,2.30
2023-03-27T16:11:56.267Z,2.35
2023-03-27T16:14:52.421Z,2.36
2023-03-27T16:17:34.548Z,2.36
2023-03-27T16:20:13.223Z,2.38
2023-03-27T16:22:41.852Z,2.42
2023-03-27T16:25:11.241Z,2.44
2023-03-27T16:27:53.125Z,2.41
2023-03-27T16:30:21.165Z,2.40
2023-03-27T16:32:49.749Z,2.34
2023-03-27T16:35:17.961Z,2.31
2023-03-27T16:37:46.463Z,2.27
2023-03-27T16:40:15.324Z,2.25
2023-03-27T16:42:43.857Z,2.32
2023-03-27T16:45:11.992Z,2.28
2023-03-27T16:47:41.884Z,2.27
2023-03-27T16:50:16.011Z,2.21
2023-03-27T16:52:44.466Z,2.29
2023-03-27T16:55:14.145Z,2.24
2023-03-27T16:57:42.699Z,2.26
2023-03-27T17:00:12.344Z,2.13
2023-03-27T17:02:40.979Z,2.00
2023-03-27T17:05:09.674Z,1.95
2023-03-27T17:07:38.394Z,1.90
2023-03-27T17:10:07.070Z,1.85
2023-03-27T17:12:35.248Z,1.79
2023-03-27T17:15:04.155Z,1.77
2023-03-27T17:17:32.442Z,1.69
2023-03-27T17:20:00.928Z,1.68
2023-03-27T17:22:30.352Z,1.59
2023-03-27T17:25:01.340Z,1.57
2023-03-27T17:27:30.009Z,1.59
2023-03-27T17:29:58.191Z,1.58
2023-03-27T17:32:27.193Z,1.53
2023-03-27T17:34:55.662Z,1.62
2023-03-27T17:37:24.311Z,1.62
2023-03-27T17:39:52.246Z,1.65
2023-03-27T17:42:20.192Z,1.69
2023-03-27T17:44:48.326Z,1.66
2023-03-27T17:47:16.566Z,1.66
2023-03-27T17:49:45.514Z,1.63
2023-03-27T17:52:14.527Z,1.57
2023-03-27T17:54:42.100Z,1.59
2023-03-27T17:57:10.670Z,1.53
2023-03-27T17:59:38.664Z,1.46
2023-03-27T18:02:07.552Z,1.36
2023-03-27T18:04:35.718Z,1.35
2023-03-27T18:07:04.250Z,1.29
2023-03-27T18:09:34.184Z,1.21
2023-03-27T18:12:02.635Z,1.13
2023-03-27T18:14:30.518Z,1.06
2023-03-27T18:16:58.560Z,1.02
2023-03-27T18:19:26.599Z,0.92
2023-03-27T18:21:54.969Z,0.88
2023-03-27T18:24:23.038Z,0.82
2023-03-27T18:26:51.457Z,0.82
2023-03-27T18:29:21.599Z,0.76
2023-03-27T18:31:50.278Z,0.71
2023-03-27T18:34:18.360Z,0.73
2023-03-27T18:36:51.261Z,0.74
2023-03-27T18:39:19.378Z,0.70
2023-03-27T18:41:47.722Z,0.75
2023-03-27T18:44:16.073Z,0.64
2023-03-27T18:46:44.208Z,0.69
2023-03-27T18:49:23.807Z,0.68
2023-03-27T18:51:52.811Z,0.64
2023-03-27T18:54:20.877Z,0.68
2023-03-27T18:56:49.499Z,0.64
2023-03-27T18:59:18.399Z,0.59
2023-03-27T19:01:46.892Z,0.57
2023-03-27T19:04:17.107Z,0.51
2023-03-27T19:06:46.840Z,0.51
2023-03-27T19:09:15.021Z,0.53
2023-03-27T19:11:44.114Z,0.43
2023-03-27T19:14:30.882Z,0.41
2023-03-27T19:17:19.310Z,0.39
2023-03-27T19:20:09.605Z,0.28
2023-03-27T19:22:51.042Z,0.25
2023-03-27T19:25:38.334Z,0.16
2023-03-27T19:28:06.603Z,0.11
2023-03-27T19:30:34.672Z,0.08
2023-03-27T19:33:02.964Z,0.05
2023-03-27T19:35:31.113Z,0.01
2023-03-27T19:37:59.650Z,-0.09
2023-03-27T19:40:27.548Z,-0.07
2023-03-27T19:42:55.703Z,-0.15
2023-03-27T19:45:23.640Z,-0.15
2023-03-27T19:47:52.536Z,-0.24
2023-03-27T19:50:21.116Z,-0.24
2023-03-27T19:53:09.049Z,-0.30
2023-03-27T19:55:37.926Z,-0.35
2023-03-27T19:58:06.292Z,-0.48
2023-03-27T20:00:38.781Z,-0.46
2023-03-27T20:03:10.650Z,-0.51
2023-03-27T20:05:41.201Z,-0.57
2023-03-27T20:08:09.789Z,-0.63
2023-03-27T20:10:37.647Z,-0.68
2023-03-27T20:13:06.181Z,-0.67
2023-03-27T20:15:34.783Z,-0.70
2023-03-27T20:18:04.959Z,-0.79
2023-03-27T20:20:33.589Z,-0.81
2023-03-27T20:23:03.703Z,-0.88
2023-03-27T20:25:34.332Z,-0.81
2023-03-27T20:28:05.884Z,-0.86
2023-03-27T20:30:37.131Z,-0.92
2023-03-27T20:33:06.226Z,-0.99
2023-03-27T20:35:37.075Z,-0.99
2023-03-27T20:38:11.529Z,-1.09
2023-03-27T20:40:53.151Z,-1.10
2023-03-27T20:43:27.533Z,-1.14
2023-03-27T20:45:59.270Z,-1.19
2023-03-27T20:48:40.558Z,-1.22
2023-03-27T20:51:16.061Z,-1.24
2023-03-27T20:53:54.522Z,-1.28
2023-03-27T20:56:23.302Z,-1.29
2023-03-27T20:58:54.272Z,-1.35
2023-03-27T21:01:28.165Z,-1.36
2023-03-27T21:03:58.653Z,-1.49
2023-03-27T21:06:26.839Z,-1.51
2023-03-27T21:08:56.362Z,-1.46
2023-03-27T21:11:24.050Z,-1.45
2023-03-27T21:13:53.492Z,-1.52
2023-03-27T21:16:21.773Z,-1.52
2023-03-27T21:18:51.196Z,-1.51
2023-03-27T21:21:19.532Z,-1.53
2023-03-27T21:23:48.353Z,-1.56
2023-03-27T21:26:17.761Z,-1.61
2023-03-27T21:28:46.357Z,-1.60
2023-03-27T21:31:14.170Z,-1.62
2023-03-27T21:33:42.822Z,-1.62
2023-03-27T21:36:13.086Z,-1.73
2023-03-27T21:38:41.490Z,-1.73
2023-03-27T21:41:14.451Z,-1.71
2023-03-27T21:43:42.873Z,-1.73
2023-03-27T21:46:10.943Z,-1.80
2023-03-27T21:48:45.064Z,-1.77
2023-03-27T21:51:12.949Z,-1.81
2023-03-27T21:53:42.803Z,-1.79
2023-03-27T21:56:10.792Z,-1.81
2023-03-27T21:58:39.350Z,-1.80
2023-03-27T22:01:07.442Z,-1.86
2023-03-27T22:03:35.959Z,-1.87
2023-03-27T22:06:11.544Z,-1.90
2023-03-27T22:08:43.046Z,-1.95
2023-03-27T22:11:12.659Z,-1.96
2023-03-27T22:13:42.287Z,-2.01
2023-03-27T22:16:12.595Z,-2.01
2023-03-27T22:18:41.628Z,-2.07
2023-03-27T22:21:24.297Z,-2.06
2023-03-27T22:23:54.069Z,-2.07
2023-03-27T22:26:29.493Z,-2.07
2023-03-27T22:28:58.243Z,-2.06
2023-03-27T22:31:27.626Z,-2.05
2023-03-27T22:33:56.593Z,-2.13
2023-03-27T22:36:24.788Z,-2.11
2023-03-27T22:38:52.793Z,-2.13
2023-03-27T22:41:20.470Z,-2.12
2023-03-27T22:43:49.835Z,-2.18
2023-03-27T22:46:23.662Z,-2.18
2023-03-27T22:48:57.082Z,-2.13
2023-03-27T22:51:28.235Z,-2.26
2023-03-27T22:53:58.447Z,-2.25
2023-03-27T22:56:27.169Z,-2.28
2023-03-27T22:58:56.008Z,-2.27
2023-03-27T23:01:24.663Z,-2.46
2023-03-27T23:03:54.430Z,-2.38
2023-03-27T23:06:23.984Z,-2.35
2023-03-27T23:08:56.145Z,-2.34
2023-03-27T23:11:25.192Z,-2.48
2023-03-27T23:13:54.060Z,-2.55
2023-03-27T23:16:23.623Z,-2.40
2023-03-27T23:18:52.381Z,-2.36
2023-03-27T23:21:21.810Z,-2.57
2023-03-27T23:23:50.013Z,-2.41
2023-03-27T23:26:18.475Z,-2.64
2023-03-27T23:28:46.998Z,-2.84
2023-03-27T23:31:17.726Z,-2.59
2023-03-27T23:33:47.781Z,-2.69
2023-03-27T23:36:19.759Z,-2.83
2023-03-27T23:38:48.019Z,-2.76
2023-03-27T23:41:17.303Z,-2.72
2023-03-27T23:43:45.697Z,-2.99
2023-03-27T23:46:15.757Z,-2.74
2023-03-27T23:48:45.085Z,-2.85
2023-03-27T23:51:16.655Z,-2.84
2023-03-27T23:53:45.465Z,-2.97
2023-03-27T23:56:14.210Z,-2.84
2023-03-27T23:58:42.501Z,-2.87
